createdAt,value
2018-05-16T00:00:29.973Z,87.45
2018-05-16T00:01:30.000Z,87.45
2018-05-16T00:02:29.926Z,86.93
2018-05-16T00:03:29.902Z,87.31
2018-05-16T00:04:29.879Z,87.50
2018-05-16T00:05:29.855Z,87.79
2018-05-16T00:06:29.832Z,87.26
2018-05-16T00:07:29.809Z,87.35
2018-05-16T00:08:29.786Z,87.35
2018-05-16T00:09:29.765Z,87.02
2018-05-16T00:10:29.740Z,87.41
2018-05-16T00:11:29.718Z,88.08
2018-05-16T00:12:29.693Z,87.98
2018-05-16T00:13:29.668Z,88.17
2018-05-16T00:14:29.648Z,88.17
2018-05-16T00:15:29.627Z,88.27
2018-05-16T00:16:29.599Z,88.17
2018-05-16T00:17:29.576Z,88.65
2018-05-16T00:18:29.553Z,88.65
2018-05-16T00:19:29.534Z,88.65
2018-05-16T00:20:29.522Z,88.46
2018-05-16T00:21:29.486Z,88.46
2018-05-16T00:22:29.459Z,88.84
2018-05-16T00:23:29.436Z,88.84
2018-05-16T00:24:29.413Z,89.32
2018-05-16T00:25:29.388Z,89.23
2018-05-16T00:26:29.366Z,89.71
2018-05-16T00:27:29.388Z,89.71
2018-05-16T00:28:29.319Z,89.90
2018-05-16T00:29:29.295Z,89.90
2018-05-16T00:30:29.476Z,90.09
2018-05-16T00:31:29.249Z,89.71
2018-05-16T00:32:29.226Z,90.00
2018-05-16T00:33:29.201Z,90.00
2018-05-16T00:34:29.183Z,89.80
2018-05-16T00:35:29.155Z,89.61
2018-05-16T00:36:29.132Z,89.80
2018-05-16T00:37:29.110Z,90.19
2018-05-16T00:38:29.085Z,90.00
2018-05-16T00:39:29.062Z,89.95
2018-05-16T00:40:29.043Z,90.33
2018-05-16T00:41:29.020Z,90.47
2018-05-16T00:42:28.998Z,90.76
2018-05-16T00:43:28.967Z,90.91
2018-05-16T00:44:28.943Z,90.72
2018-05-16T00:45:28.969Z,91.53
2018-05-16T00:46:28.900Z,90.91
2018-05-16T00:47:28.872Z,90.86
2018-05-16T00:48:28.850Z,90.86
2018-05-16T00:49:28.825Z,90.95
2018-05-16T00:50:28.801Z,90.86
2018-05-16T00:51:28.780Z,90.76
2018-05-16T00:52:28.756Z,90.57
2018-05-16T00:53:28.730Z,91.43
2018-05-16T00:54:28.707Z,91.34
2018-05-16T00:55:28.686Z,91.43
2018-05-16T00:56:28.660Z,91.34
2018-05-16T00:57:28.636Z,91.34
2018-05-16T00:58:28.618Z,90.76
2018-05-16T00:59:28.589Z,91.34
2018-05-16T01:00:28.565Z,90.95
2018-05-16T01:01:28.541Z,91.24
2018-05-16T01:02:28.517Z,91.14
2018-05-16T01:03:28.493Z,90.76
2018-05-16T01:04:28.471Z,90.86
2018-05-16T01:05:28.447Z,91.05
2018-05-16T01:06:28.423Z,90.86
2018-05-16T01:07:28.406Z,91.14
2018-05-16T01:08:28.376Z,91.14
2018-05-16T01:09:28.352Z,91.53
2018-05-16T01:10:28.329Z,91.53
2018-05-16T01:11:28.314Z,91.34
2018-05-16T01:12:28.282Z,91.14
2018-05-16T01:13:28.260Z,91.34
2018-05-16T01:14:28.236Z,91.24
2018-05-16T01:15:28.211Z,90.95
2018-05-16T01:16:28.189Z,91.43
2018-05-16T01:17:28.162Z,91.14
2018-05-16T01:18:28.142Z,90.67
2018-05-16T01:19:28.116Z,91.34
2018-05-16T01:20:28.098Z,90.95
2018-05-16T01:21:28.069Z,91.43
2018-05-16T01:22:28.045Z,91.72
2018-05-16T01:23:28.022Z,91.72
2018-05-16T01:24:27.998Z,90.86
2018-05-16T01:25:27.974Z,91.82
2018-05-16T01:26:27.952Z,91.82
2018-05-16T01:27:27.928Z,93.73
2018-05-16T01:28:27.908Z,93.98
2018-05-16T01:29:27.880Z,95.51
2018-05-16T01:30:27.858Z,96.47
2018-05-16T01:31:27.834Z,96.56
2018-05-16T01:32:27.811Z,96.37
2018-05-16T01:33:27.786Z,96.47
2018-05-16T01:34:27.762Z,95.89
2018-05-16T01:35:27.741Z,95.12
2018-05-16T01:36:27.721Z,95.98
2018-05-16T01:37:27.703Z,96.47
2018-05-16T01:38:27.667Z,95.03
2018-05-16T01:39:27.648Z,95.98
2018-05-16T01:40:27.620Z,95.51
2018-05-16T01:41:27.596Z,95.79
2018-05-16T01:42:27.572Z,95.41
2018-05-16T01:43:27.548Z,95.79
2018-05-16T01:44:27.575Z,95.22
2018-05-16T01:45:27.500Z,95.41
2018-05-16T01:46:27.478Z,95.70
2018-05-16T01:47:27.454Z,95.70
2018-05-16T01:48:27.429Z,95.98
2018-05-16T01:49:27.404Z,96.94
2018-05-16T01:50:27.383Z,96.47
2018-05-16T01:51:27.356Z,98.10
2018-05-16T01:52:27.333Z,97.23
2018-05-16T01:53:27.308Z,97.90
2018-05-16T01:54:27.288Z,99.15
2018-05-16T01:55:27.261Z,97.52
2018-05-16T01:56:27.239Z,97.90
2018-05-16T01:57:27.216Z,98.00
2018-05-16T01:58:27.187Z,97.52
2018-05-16T01:59:27.177Z,96.84
2018-05-16T02:00:27.143Z,96.84
2018-05-16T02:01:27.115Z,95.70
2018-05-16T02:02:27.141Z,95.79
2018-05-16T02:03:27.075Z,95.60
2018-05-16T02:04:27.043Z,95.79
2018-05-16T02:05:27.022Z,95.98
2018-05-16T02:06:26.995Z,95.70
2018-05-16T02:07:26.973Z,95.98
2018-05-16T02:08:26.950Z,95.51
2018-05-16T02:09:26.926Z,95.70
2018-05-16T02:10:26.901Z,95.70
2018-05-16T02:11:26.874Z,95.60
2018-05-16T02:12:26.851Z,94.98
2018-05-16T02:13:26.832Z,94.89
2018-05-16T02:14:26.804Z,95.03
2018-05-16T02:15:26.779Z,95.12
2018-05-16T02:16:26.755Z,95.60
2018-05-16T02:17:26.730Z,95.70
2018-05-16T02:18:26.711Z,95.98
2018-05-16T02:19:26.685Z,97.04
2018-05-16T02:20:26.660Z,98.57
2018-05-16T02:21:26.635Z,99.15
2018-05-16T02:22:26.612Z,99.15
2018-05-16T02:23:26.587Z,98.28
2018-05-16T02:24:26.564Z,97.42
2018-05-16T02:25:26.544Z,96.56
2018-05-16T02:26:26.515Z,96.47
2018-05-16T02:27:26.491Z,96.47
2018-05-16T02:28:26.469Z,96.94
2018-05-16T02:29:26.443Z,97.33
2018-05-16T02:30:26.426Z,96.37
2018-05-16T02:31:26.395Z,97.33
2018-05-16T02:32:26.372Z,97.80
2018-05-16T02:33:26.346Z,98.28
2018-05-16T02:34:26.322Z,97.23
2018-05-16T02:35:26.298Z,98.47
2018-05-16T02:36:26.325Z,99.99
2018-05-16T02:37:26.342Z,99.34
2018-05-16T02:38:26.226Z,99.05
2018-05-16T02:39:26.204Z,99.43
2018-05-16T02:40:26.182Z,97.80
2018-05-16T02:41:26.155Z,96.75
2018-05-16T02:42:26.187Z,97.42
2018-05-16T02:43:26.112Z,98.38
2018-05-16T02:44:26.085Z,98.00
2018-05-16T02:45:26.057Z,99.05
2018-05-16T02:46:26.035Z,99.05
2018-05-16T02:47:26.136Z,98.96
2018-05-16T02:48:25.987Z,99.24
2018-05-16T02:49:25.965Z,99.82
2018-05-16T02:50:25.937Z,98.10
2018-05-16T02:51:25.913Z,98.86
2018-05-16T02:52:25.889Z,99.34
2018-05-16T02:53:25.870Z,99.99
2018-05-16T02:54:25.877Z,99.99
2018-05-16T02:55:25.816Z,99.99
2018-05-16T02:56:25.798Z,99.99
2018-05-16T02:57:25.769Z,99.99
2018-05-16T02:58:25.743Z,99.99
2018-05-16T02:59:25.722Z,99.99
2018-05-16T03:00:25.695Z,99.99
2018-05-16T03:01:25.670Z,99.99
2018-05-16T03:02:25.847Z,99.99
2018-05-16T03:03:25.621Z,99.99
2018-05-16T03:04:25.648Z,99.99
2018-05-16T03:05:25.570Z,99.99
2018-05-16T03:06:25.549Z,99.99
2018-05-16T03:07:25.524Z,99.99
2018-05-16T03:08:25.499Z,99.99
2018-05-16T03:09:25.474Z,99.99
2018-05-16T03:10:25.450Z,99.99
2018-05-16T03:11:25.423Z,99.99
2018-05-16T03:12:25.399Z,99.99
2018-05-16T03:13:25.380Z,99.99
2018-05-16T03:14:25.353Z,99.99
2018-05-16T03:15:25.324Z,99.99
2018-05-16T03:16:28.733Z,99.99
2018-05-16T03:17:25.476Z,99.99
2018-05-16T03:18:25.452Z,99.99
2018-05-16T03:19:25.224Z,99.99
2018-05-16T03:20:25.199Z,99.99
2018-05-16T03:21:25.178Z,99.99
2018-05-16T03:22:25.149Z,99.99
2018-05-16T03:24:07.477Z,99.99
2018-05-16T03:25:08.265Z,99.99
2018-05-16T03:26:07.427Z,99.99
2018-05-16T03:27:07.201Z,99.99
2018-05-16T03:28:07.176Z,99.99
2018-05-16T03:29:07.150Z,99.99
2018-05-16T03:30:07.126Z,99.99
2018-05-16T03:31:07.102Z,99.99
2018-05-16T03:32:07.076Z,99.99
2018-05-16T03:33:07.049Z,99.99
2018-05-16T03:34:07.025Z,99.99
2018-05-16T03:35:07.000Z,99.99
2018-05-16T03:36:06.976Z,99.99
2018-05-16T03:37:06.949Z,99.99
2018-05-16T03:38:06.925Z,99.99
2018-05-16T03:39:06.900Z,99.99
2018-05-16T03:40:06.880Z,99.99
2018-05-16T03:41:06.851Z,99.99
2018-05-16T03:42:06.826Z,99.99
2018-05-16T03:43:06.801Z,99.99
2018-05-16T03:44:06.777Z,99.99
2018-05-16T03:45:06.752Z,99.99
2018-05-16T03:46:06.729Z,99.99
2018-05-16T03:47:06.703Z,99.99
2018-05-16T03:48:06.678Z,99.99
2018-05-16T03:49:06.652Z,99.99
2018-05-16T03:50:06.629Z,99.99
2018-05-16T03:51:06.604Z,99.99
2018-05-16T03:52:06.639Z,99.99
2018-05-16T03:53:06.555Z,99.99
2018-05-16T03:54:06.532Z,99.99
2018-05-16T03:55:06.506Z,99.99
2018-05-16T03:56:06.485Z,99.99
2018-05-16T03:57:06.457Z,99.99
2018-05-16T03:58:06.434Z,99.99
2018-05-16T03:59:06.409Z,99.99
2018-05-16T04:00:06.395Z,99.99
2018-05-16T04:01:06.362Z,99.99
2018-05-16T04:02:06.338Z,99.99
2018-05-16T04:03:06.316Z,99.99
2018-05-16T04:04:06.290Z,99.99
2018-05-16T04:05:06.267Z,99.99
2018-05-16T04:06:06.440Z,99.99
2018-05-16T04:07:06.214Z,99.99
2018-05-16T04:08:06.190Z,99.99
2018-05-16T04:09:06.171Z,99.99
2018-05-16T04:10:48.498Z,99.99
2018-05-16T04:11:48.274Z,99.99
2018-05-16T04:12:48.248Z,99.99
2018-05-16T04:13:48.223Z,99.99
2018-05-16T04:14:48.196Z,99.99
2018-05-16T04:15:48.173Z,99.99
2018-05-16T04:16:48.148Z,99.99
2018-05-16T04:17:48.127Z,99.99
2018-05-16T04:18:48.100Z,99.99
2018-05-16T04:19:48.077Z,99.99
2018-05-16T04:20:48.052Z,99.99
2018-05-16T04:21:48.028Z,99.99
2018-05-16T04:22:48.006Z,99.99
2018-05-16T04:23:50.601Z,99.99
2018-05-16T04:24:47.958Z,99.99
2018-05-16T04:26:30.288Z,99.99
2018-05-16T04:27:30.062Z,99.99
2018-05-16T04:28:30.240Z,99.99
2018-05-16T04:29:30.012Z,99.99
2018-05-16T04:30:30.190Z,99.99
2018-05-16T04:31:29.963Z,99.99
2018-05-16T04:32:29.944Z,99.99
2018-05-16T04:33:29.916Z,99.99
2018-05-16T04:34:30.094Z,99.99
2018-05-16T04:35:29.878Z,99.99
2018-05-16T04:36:30.046Z,99.99
2018-05-16T04:37:29.821Z,99.99
2018-05-16T04:38:29.848Z,99.99
2018-05-16T04:39:29.773Z,99.99
2018-05-16T04:40:29.752Z,99.99
2018-05-16T04:41:29.725Z,99.99
2018-05-16T04:43:12.929Z,99.99
2018-05-16T04:44:12.910Z,99.99
2018-05-16T04:47:19.336Z,99.99
2018-05-16T04:48:19.115Z,99.99
2018-05-16T04:49:20.500Z,99.99
2018-05-16T04:51:01.423Z,99.99
2018-05-16T04:52:01.392Z,99.99
2018-05-16T05:04:15.824Z,99.58
2018-05-16T05:05:18.574Z,99.48
2018-05-16T05:06:57.874Z,98.72
2018-05-16T05:07:57.851Z,97.85
2018-05-16T05:08:57.921Z,98.24
2018-05-16T05:09:57.802Z,97.95
2018-05-16T05:10:57.858Z,98.52
2018-05-16T05:11:57.549Z,98.72
2018-05-16T05:12:57.526Z,99.01
2018-05-16T05:13:58.313Z,99.10
2018-05-16T05:24:47.868Z,99.99
2018-05-16T05:25:47.559Z,99.99
2018-05-16T05:26:47.535Z,99.99
2018-05-16T05:27:47.511Z,99.99
2018-05-16T05:28:47.485Z,99.99
2018-05-16T05:31:11.964Z,99.87
2018-05-16T05:32:11.737Z,99.48
2018-05-16T05:33:11.727Z,99.48
2018-05-16T05:34:11.692Z,99.48
2018-05-16T05:35:11.666Z,99.01
2018-05-16T05:36:11.843Z,99.29
2018-05-16T05:37:11.618Z,99.34
2018-05-16T05:38:11.594Z,99.24
2018-05-16T05:39:11.571Z,98.86
2018-05-16T05:40:11.550Z,97.61
2018-05-16T05:41:11.523Z,97.42
2018-05-16T05:42:11.501Z,97.71
2018-05-16T05:43:11.491Z,97.81
2018-05-16T05:44:11.455Z,96.89
2018-05-16T05:45:11.431Z,96.22
2018-05-16T05:46:11.410Z,95.98
2018-05-16T05:47:11.386Z,95.31
2018-05-16T05:48:11.566Z,93.97
2018-05-16T05:49:11.377Z,93.44
2018-05-16T05:50:11.317Z,92.24
2018-05-16T05:51:11.297Z,92.24
2018-05-16T05:52:11.271Z,90.51
2018-05-16T05:53:11.254Z,90.22
2018-05-16T05:54:11.430Z,89.59
2018-05-16T05:55:11.213Z,90.31
2018-05-16T05:56:11.185Z,89.93
2018-05-16T05:57:11.163Z,90.51
2018-05-16T05:58:11.143Z,90.12
2018-05-16T05:59:11.122Z,89.30
2018-05-16T06:00:11.284Z,90.31
2018-05-16T06:01:11.080Z,90.17
2018-05-16T06:02:11.058Z,90.17
2018-05-16T06:03:11.037Z,89.22
2018-05-16T06:04:11.016Z,89.60
2018-05-16T06:05:10.995Z,89.64
2018-05-16T06:06:11.029Z,89.26
2018-05-16T06:07:10.957Z,87.82
2018-05-16T06:08:10.934Z,87.76
2018-05-16T06:09:10.921Z,87.48
2018-05-16T06:10:10.895Z,87.82
2018-05-16T06:11:10.875Z,88.01
2018-05-16T06:12:10.854Z,88.20
2018-05-16T06:13:10.834Z,90.08
2018-05-16T06:14:10.816Z,90.41
2018-05-16T06:15:10.813Z,88.59
2018-05-16T06:16:10.776Z,88.20
2018-05-16T06:17:10.758Z,88.59
2018-05-16T06:18:10.736Z,88.44
2018-05-16T06:19:10.715Z,87.62
2018-05-16T06:20:10.693Z,88.39
2018-05-16T06:21:10.696Z,89.31
2018-05-16T06:22:10.666Z,89.36
2018-05-16T06:23:10.636Z,88.63
2018-05-16T06:24:10.664Z,88.63
2018-05-16T06:25:10.595Z,88.34
2018-05-16T06:26:10.575Z,86.90
2018-05-16T06:27:10.651Z,88.01
2018-05-16T06:28:10.536Z,88.59
2018-05-16T06:29:10.515Z,88.68
2018-05-16T06:30:10.502Z,89.54
2018-05-16T06:31:10.476Z,89.54
2018-05-16T06:32:10.455Z,88.63
2018-05-16T06:33:10.436Z,88.29
2018-05-16T06:34:10.418Z,87.86
2018-05-16T06:35:10.401Z,86.60
2018-05-16T06:36:10.377Z,86.04
2018-05-16T06:37:10.359Z,88.06
2018-05-16T06:38:10.338Z,87.48
2018-05-16T06:39:10.422Z,87.42
2018-05-16T06:40:10.301Z,87.13
2018-05-16T06:41:10.285Z,87.04
2018-05-16T06:42:10.261Z,86.36
2018-05-16T06:43:10.250Z,87.23
2018-05-16T06:44:10.227Z,86.46
2018-05-16T06:45:10.204Z,86.80
2018-05-16T06:46:10.187Z,87.82
2018-05-16T06:47:10.168Z,88.59
2018-05-16T06:48:10.179Z,87.76
2018-05-16T06:49:10.126Z,85.78
2018-05-16T06:50:10.111Z,85.17
2018-05-16T06:51:10.091Z,86.22
2018-05-16T06:52:10.068Z,86.46
2018-05-16T06:53:10.050Z,84.92
2018-05-16T06:54:10.031Z,84.54
2018-05-16T06:55:10.012Z,84.30
2018-05-16T06:56:09.999Z,84.25
2018-05-16T06:57:09.977Z,83.58
2018-05-16T06:58:10.255Z,84.54
2018-05-16T06:59:09.937Z,84.39
2018-05-16T07:00:09.924Z,83.67
2018-05-16T07:01:09.898Z,83.23
2018-05-16T07:02:09.881Z,82.02
2018-05-16T07:03:09.865Z,80.33
2018-05-16T07:04:09.866Z,79.17
2018-05-16T07:05:09.825Z,79.50
2018-05-16T07:06:09.805Z,78.31
2018-05-16T07:07:09.789Z,78.56
2018-05-16T07:08:09.769Z,80.92
2018-05-16T07:09:10.963Z,80.62
2018-05-16T07:10:09.732Z,78.40
2018-05-16T07:11:09.714Z,77.58
2018-05-16T07:12:09.694Z,76.26
2018-05-16T07:13:09.677Z,75.49
2018-05-16T07:14:09.660Z,77.34
2018-05-16T07:15:09.641Z,77.38
2018-05-16T07:16:09.623Z,77.83
2018-05-16T07:17:09.607Z,75.14
2018-05-16T07:18:09.792Z,71.88
2018-05-16T07:19:09.773Z,68.68
2018-05-16T07:20:09.554Z,70.23
2018-05-16T07:21:09.738Z,68.37
2018-05-16T07:22:09.519Z,68.59
2018-05-16T07:23:09.705Z,67.69
2018-05-16T07:24:09.687Z,67.27
2018-05-16T07:25:09.674Z,65.69
2018-05-16T07:26:09.460Z,63.91
2018-05-16T07:27:09.639Z,61.68
2018-05-16T07:28:09.623Z,63.20
2018-05-16T07:29:09.607Z,61.46
2018-05-16T07:30:09.595Z,61.65
2018-05-16T07:31:09.377Z,62.62
2018-05-16T07:32:09.361Z,62.13
2018-05-16T07:33:09.601Z,62.13
2018-05-16T07:34:09.533Z,61.85
2018-05-16T07:35:09.525Z,61.81
2018-05-16T07:36:09.301Z,59.31
2018-05-16T07:37:09.286Z,57.60
2018-05-16T07:38:09.475Z,56.82
2018-05-16T07:39:09.267Z,58.97
2018-05-16T07:40:09.465Z,58.90
2018-05-16T07:41:09.447Z,56.81
2018-05-16T07:42:09.220Z,59.79
2018-05-16T07:43:09.207Z,63.85
2018-05-16T07:44:09.193Z,64.21
2018-05-16T07:45:09.227Z,66.66
2018-05-16T07:46:09.164Z,67.62
2018-05-16T07:47:12.649Z,68.29
2018-05-16T07:48:09.135Z,67.75
2018-05-16T07:49:09.122Z,66.91
2018-05-16T07:50:09.108Z,66.14
2018-05-16T07:51:09.107Z,67.36
2018-05-16T07:52:09.077Z,68.23
2018-05-16T07:53:09.067Z,67.75
2018-05-16T07:54:09.048Z,68.23
2018-05-16T07:55:09.034Z,67.94
2018-05-16T07:56:09.018Z,68.68
2018-05-16T07:57:09.007Z,69.00
2018-05-16T07:58:08.991Z,69.80
2018-05-16T07:59:08.973Z,69.67
2018-05-16T08:00:09.163Z,70.38
2018-05-16T08:01:09.149Z,67.04
2018-05-16T08:02:08.924Z,66.66
2018-05-16T08:03:09.117Z,68.39
2018-05-16T08:04:08.892Z,68.65
2018-05-16T08:05:08.877Z,68.13
2018-05-16T08:06:08.863Z,65.88
2018-05-16T08:07:08.845Z,63.69
2018-05-16T08:08:08.830Z,62.01
2018-05-16T08:09:08.813Z,60.85
2018-05-16T08:10:08.797Z,62.12
2018-05-16T08:11:08.782Z,65.47
2018-05-16T08:12:08.834Z,66.43
2018-05-16T08:13:08.751Z,66.82
2018-05-16T08:14:08.735Z,66.33
2018-05-16T08:15:08.725Z,66.27
2018-05-16T08:16:08.906Z,63.27
2018-05-16T08:17:08.690Z,61.88
2018-05-16T08:18:08.877Z,60.17
2018-05-16T08:19:08.863Z,58.97
2018-05-16T08:20:08.653Z,57.64
2018-05-16T08:21:08.836Z,57.78
2018-05-16T08:22:08.825Z,60.33
2018-05-16T08:23:08.609Z,61.36
2018-05-16T08:24:08.797Z,62.17
2018-05-16T08:25:08.578Z,60.62
2018-05-16T08:26:08.765Z,60.17
2018-05-16T08:27:08.549Z,61.33
2018-05-16T08:28:08.552Z,63.82
2018-05-16T08:29:08.522Z,64.11
2018-05-16T08:30:08.514Z,64.76
2018-05-16T08:31:08.542Z,64.69
2018-05-16T08:32:08.483Z,63.31
2018-05-16T08:33:08.470Z,62.17
2018-05-16T08:34:08.457Z,61.66
2018-05-16T08:35:08.444Z,62.04
2018-05-16T08:36:08.431Z,62.17
2018-05-16T08:37:08.642Z,60.17
2018-05-16T08:38:08.409Z,58.80
2018-05-16T08:39:08.393Z,57.50
2018-05-16T08:40:08.385Z,56.62
2018-05-16T08:41:08.367Z,55.75
2018-05-16T08:42:08.557Z,58.16
2018-05-16T08:43:08.343Z,61.11
2018-05-16T08:44:08.333Z,60.52
2018-05-16T08:45:08.318Z,59.03
2018-05-16T08:46:08.312Z,60.98
2018-05-16T08:47:08.296Z,62.43
2018-05-16T08:48:08.281Z,60.97
2018-05-16T08:49:08.475Z,59.45
2018-05-16T08:50:08.267Z,58.41
2018-05-16T08:51:08.260Z,56.01
2018-05-16T08:52:08.239Z,57.61
2018-05-16T08:53:08.427Z,56.60
2018-05-16T08:54:08.414Z,54.88
2018-05-16T08:55:08.203Z,54.44
2018-05-16T08:56:08.190Z,54.05
2018-05-16T08:57:08.175Z,54.86
2018-05-16T08:58:08.164Z,54.10
2018-05-16T08:59:08.162Z,56.43
2018-05-16T09:00:08.142Z,57.80
2018-05-16T09:01:08.224Z,58.87
2018-05-16T09:02:08.120Z,58.97
2018-05-16T09:03:08.111Z,58.67
2018-05-16T09:04:08.334Z,58.45
2018-05-16T09:05:10.911Z,60.82
2018-05-16T09:06:08.279Z,63.73
2018-05-16T09:07:08.072Z,66.50
2018-05-16T09:08:08.056Z,65.11
2018-05-16T09:09:08.042Z,63.07
2018-05-16T09:10:08.031Z,61.91
2018-05-16T09:11:08.027Z,60.30
2018-05-16T09:12:08.011Z,60.49
2018-05-16T09:13:08.001Z,62.49
2018-05-16T09:14:07.986Z,60.71
2018-05-16T09:15:07.974Z,59.64
2018-05-16T09:16:07.964Z,59.52
2018-05-16T09:17:08.007Z,61.24
2018-05-16T09:18:07.942Z,62.01
2018-05-16T09:19:07.929Z,60.58
2018-05-16T09:20:07.917Z,60.62
2018-05-16T09:21:07.909Z,61.46
2018-05-16T09:22:07.896Z,59.51
2018-05-16T09:23:07.884Z,57.42
2018-05-16T09:24:07.872Z,58.09
2018-05-16T09:25:07.885Z,59.36
2018-05-16T09:26:07.850Z,62.88
2018-05-16T09:27:07.840Z,62.66
2018-05-16T09:28:07.833Z,60.14
2018-05-16T09:29:07.819Z,60.65
2018-05-16T09:30:07.807Z,59.52
2018-05-16T09:31:07.799Z,60.33
2018-05-16T09:32:07.788Z,60.57
2018-05-16T09:33:07.772Z,60.30
2018-05-16T09:34:07.765Z,56.64
2018-05-16T09:35:07.750Z,58.56
2018-05-16T09:36:07.738Z,60.53
2018-05-16T09:37:07.727Z,61.60
2018-05-16T09:38:07.720Z,60.95
2018-05-16T09:39:07.705Z,60.82
2018-05-16T09:40:07.703Z,61.47
2018-05-16T09:41:07.682Z,61.89
2018-05-16T09:42:07.687Z,60.98
2018-05-16T09:43:07.658Z,59.27
2018-05-16T09:44:07.646Z,58.36
2018-05-16T09:45:07.634Z,56.77
2018-05-16T09:46:07.626Z,56.81
2018-05-16T09:47:07.611Z,56.83
2018-05-16T09:48:07.603Z,57.87
2018-05-16T09:49:07.587Z,56.67
2018-05-16T09:50:07.596Z,55.82
2018-05-16T09:51:07.571Z,55.41
2018-05-16T09:52:07.582Z,56.54
2018-05-16T09:53:07.539Z,55.69
2018-05-16T09:54:07.529Z,54.94
2018-05-16T09:55:07.527Z,55.21
2018-05-16T09:56:07.505Z,58.98
2018-05-16T09:57:07.495Z,60.50
2018-05-16T09:58:07.483Z,58.51
2018-05-16T09:59:07.475Z,56.61
2018-05-16T10:00:07.461Z,57.87
2018-05-16T10:01:07.479Z,58.29
2018-05-16T10:02:07.458Z,56.11
2018-05-16T10:03:07.443Z,55.31
2018-05-16T10:04:07.426Z,58.78
2018-05-16T10:05:07.424Z,60.50
2018-05-16T10:06:07.405Z,61.60
2018-05-16T10:07:07.386Z,61.33
2018-05-16T10:08:07.373Z,61.18
2018-05-16T10:09:07.362Z,60.50
2018-05-16T10:10:07.366Z,59.52
2018-05-16T10:11:07.351Z,58.39
2018-05-16T10:12:08.561Z,59.63
2018-05-16T10:13:07.348Z,61.18
2018-05-16T10:14:07.320Z,61.21
2018-05-16T10:15:07.307Z,59.26
2018-05-16T10:16:07.309Z,58.09
2018-05-16T10:17:07.366Z,55.88
2018-05-16T10:18:07.361Z,55.73
2018-05-16T10:19:07.261Z,58.26
2018-05-16T10:20:07.248Z,61.27
2018-05-16T10:21:07.247Z,61.40
2018-05-16T10:22:07.257Z,60.55
2018-05-16T10:23:07.236Z,59.52
2018-05-16T10:24:07.191Z,61.56
2018-05-16T10:25:07.179Z,62.04
2018-05-16T10:26:07.174Z,61.24
2018-05-16T10:27:07.166Z,61.21
2018-05-16T10:28:07.146Z,59.16
2018-05-16T10:29:07.134Z,57.76
2018-05-16T10:30:07.125Z,55.85
2018-05-16T10:31:07.111Z,56.56
2018-05-16T10:32:07.099Z,54.68
2018-05-16T10:33:07.088Z,54.88
2018-05-16T10:34:07.083Z,55.99
2018-05-16T10:35:07.074Z,59.00
2018-05-16T10:36:07.055Z,60.17
2018-05-16T10:37:07.060Z,59.19
2018-05-16T10:38:07.033Z,56.34
2018-05-16T10:39:07.022Z,54.35
2018-05-16T10:40:07.021Z,52.82
2018-05-16T10:41:07.003Z,54.07
2018-05-16T10:42:06.989Z,55.17
2018-05-16T10:43:06.978Z,54.71
2018-05-16T10:44:06.967Z,56.13
2018-05-16T10:45:06.957Z,57.07
2018-05-16T10:46:06.946Z,57.43
2018-05-16T10:47:06.936Z,56.64
2018-05-16T10:48:06.925Z,56.29
2018-05-16T10:49:06.913Z,55.77
2018-05-16T10:50:06.903Z,55.04
2018-05-16T10:51:06.892Z,56.34
2018-05-16T10:52:06.938Z,56.29
2018-05-16T10:53:06.897Z,54.21
2018-05-16T10:54:06.866Z,53.99
2018-05-16T10:55:06.851Z,53.83
2018-05-16T10:56:06.834Z,53.53
2018-05-16T10:57:06.832Z,54.77
2018-05-16T10:58:06.815Z,54.67
2018-05-16T10:59:06.803Z,54.94
2018-05-16T11:00:06.789Z,55.44
2018-05-16T11:01:06.781Z,55.52
2018-05-16T11:02:06.772Z,56.25
2018-05-16T11:03:06.756Z,53.08
2018-05-16T11:04:06.753Z,54.41
2018-05-16T11:05:06.737Z,53.27
2018-05-16T11:06:06.722Z,55.10
2018-05-16T11:07:06.711Z,56.29
2018-05-16T11:08:06.774Z,55.16
2018-05-16T11:09:06.687Z,54.96
2018-05-16T11:10:06.678Z,54.09
2018-05-16T11:11:06.673Z,53.63
2018-05-16T11:12:06.662Z,53.30
2018-05-16T11:13:06.647Z,53.27
2018-05-16T11:14:06.636Z,53.20
2018-05-16T11:15:06.620Z,51.48
2018-05-16T11:16:06.659Z,50.96
2018-05-16T11:17:06.599Z,51.93
2018-05-16T11:18:06.589Z,50.89
2018-05-16T11:19:06.579Z,51.72
2018-05-16T11:20:06.567Z,50.89
2018-05-16T11:21:06.567Z,49.15
2018-05-16T11:22:06.541Z,50.82
2018-05-16T11:23:06.532Z,51.84
2018-05-16T11:24:06.521Z,50.70
2018-05-16T11:25:06.509Z,50.74
2018-05-16T11:26:06.504Z,53.22
2018-05-16T11:27:06.493Z,54.74
2018-05-16T11:28:06.485Z,54.09
2018-05-16T11:29:06.465Z,54.58
2018-05-16T11:30:06.453Z,54.38
2018-05-16T11:31:06.445Z,54.36
2018-05-16T11:32:06.450Z,51.18
2018-05-16T11:33:06.436Z,49.66
2018-05-16T11:34:06.483Z,49.90
2018-05-16T11:35:06.397Z,51.21
2018-05-16T11:36:06.387Z,52.15
2018-05-16T11:37:06.377Z,52.23
2018-05-16T11:38:06.364Z,51.75
2018-05-16T11:39:06.362Z,50.77
2018-05-16T11:40:06.362Z,52.11
2018-05-16T11:41:06.329Z,53.22
2018-05-16T11:42:06.338Z,54.02
2018-05-16T11:43:06.330Z,52.30
2018-05-16T11:44:06.303Z,51.79
2018-05-16T11:45:06.287Z,50.43
2018-05-16T11:46:06.431Z,50.73
2018-05-16T11:47:07.361Z,51.97
2018-05-16T11:48:06.256Z,52.13
2018-05-16T11:49:06.250Z,51.97
2018-05-16T11:50:06.233Z,51.70
2018-05-16T11:51:06.229Z,51.07
2018-05-16T11:52:06.282Z,48.73
2018-05-16T11:53:06.202Z,48.73
2018-05-16T11:54:06.202Z,49.12
2018-05-16T11:55:06.181Z,49.02
2018-05-16T11:56:06.181Z,50.38
2018-05-16T11:57:06.161Z,50.29
2018-05-16T11:58:06.153Z,50.82
2018-05-16T11:59:06.151Z,51.89
2018-05-16T12:00:06.132Z,51.82
2018-05-16T12:01:06.124Z,50.12
2018-05-16T12:02:06.116Z,50.09
2018-05-16T12:03:06.104Z,49.90
2018-05-16T12:04:06.096Z,48.58
2018-05-16T12:05:06.086Z,47.90
2018-05-16T12:06:06.086Z,46.61
2018-05-16T12:07:06.070Z,47.13
2018-05-16T12:08:06.260Z,49.32
2018-05-16T12:09:06.080Z,47.96
2018-05-16T12:10:06.267Z,47.74
2018-05-16T12:11:06.030Z,47.78
2018-05-16T12:12:06.222Z,48.00
2018-05-16T12:13:06.012Z,47.66
2018-05-16T12:14:06.020Z,46.91
2018-05-16T12:15:05.997Z,45.62
2018-05-16T12:16:05.984Z,47.05
2018-05-16T12:17:05.983Z,46.28
2018-05-16T12:18:05.966Z,45.92
2018-05-16T12:19:05.957Z,46.23
2018-05-16T12:20:05.947Z,45.87
2018-05-16T12:21:05.938Z,46.79
2018-05-16T12:22:05.932Z,46.96
2018-05-16T12:23:05.920Z,46.96
2018-05-16T12:24:05.913Z,47.72
2018-05-16T12:25:05.899Z,47.81
2018-05-16T12:26:05.901Z,48.85
2018-05-16T12:27:05.879Z,48.49
2018-05-16T12:28:05.868Z,48.59
2018-05-16T12:29:05.933Z,46.94
2018-05-16T12:30:05.888Z,45.87
2018-05-16T12:31:05.845Z,46.04
2018-05-16T12:32:05.832Z,46.60
2018-05-16T12:33:05.835Z,46.04
2018-05-16T12:34:05.817Z,46.31
2018-05-16T12:35:05.804Z,46.14
2018-05-16T12:36:05.797Z,46.15
2018-05-16T12:37:05.818Z,45.57
2018-05-16T12:38:05.765Z,45.21
2018-05-16T12:39:05.762Z,45.11
2018-05-16T12:40:05.747Z,43.82
2018-05-16T12:41:05.731Z,44.12
2018-05-16T12:42:05.755Z,43.55
2018-05-16T12:43:05.764Z,43.80
2018-05-16T12:44:05.771Z,44.48
2018-05-16T12:45:05.693Z,44.46
2018-05-16T12:46:05.679Z,45.61
2018-05-16T12:47:05.684Z,45.53
2018-05-16T12:48:05.657Z,44.58
2018-05-16T12:49:05.656Z,43.63
2018-05-16T12:50:06.452Z,44.43
2018-05-16T12:51:05.626Z,44.02
2018-05-16T12:52:05.615Z,44.02
2018-05-16T12:53:05.605Z,44.51
2018-05-16T12:54:05.595Z,45.24
2018-05-16T12:55:05.586Z,44.87
2018-05-16T12:56:05.573Z,44.12
2018-05-16T12:57:05.562Z,44.51
2018-05-16T12:58:05.554Z,44.12
2018-05-16T12:59:05.550Z,43.85
2018-05-16T13:00:05.530Z,43.55
2018-05-16T13:01:05.525Z,43.11
2018-05-16T13:02:05.512Z,42.41
2018-05-16T13:03:05.518Z,44.29
2018-05-16T13:04:05.486Z,46.01
2018-05-16T13:05:05.496Z,45.87
2018-05-16T13:06:05.477Z,46.77
2018-05-16T13:07:05.521Z,45.45
2018-05-16T13:08:05.447Z,46.01
2018-05-16T13:09:05.433Z,46.14
2018-05-16T13:10:05.425Z,46.11
2018-05-16T13:11:05.425Z,45.07
2018-05-16T13:12:05.400Z,44.24
2018-05-16T13:13:05.433Z,43.73
2018-05-16T13:14:05.379Z,44.46
2018-05-16T13:15:05.369Z,44.78
2018-05-16T13:16:05.356Z,44.92
2018-05-16T13:17:05.349Z,44.87
2018-05-16T13:18:05.438Z,43.80
2018-05-16T13:19:05.331Z,43.30
2018-05-16T13:20:05.313Z,44.54
2018-05-16T13:21:05.303Z,45.21